KBGF

Winchester Municipal Airport

Winchester, Tennessee, USA
METAR KBGF 190835Z AUTO 00000KT 10SM CLR 06/05 A3029 RMK A01
Observed Flight Rules
Oct-19 @ 08:35 UTC (30 minutes ago) Visual Flight Rules
Visibility Clouds
10 miles
  • Clear skies
Temperatures Readings
Current 6°C / 43°F
Dewpoint 5°C / 41°F
Humidity 93%
Altimeter 30.29" Hg
Pressure 1026 hPa
Elevation 299
METAR KBGF 190835Z AUTO 00000KT 10SM CLR 06/05 A3029 RMK A01
Observed Flight Rules
Oct-19 @ 08:35 UTC
(30 minutes ago)
VFR
Clouds
  • Clear skies
Temperature Dewpoint
6°C / 43°F 5°C / 41°F
Humidity Altimeter Pressure
93% 30.29" Hg 1026 hPa